sensor_id;sensor_type;location;lat;lon;timestamp;pressure;altitude;pressure_sealevel;temperature;humidity
20015;BME280;61787;42.022;23.078;2023-03-14T00:00:57;97033.13;;;3.44;72.52
20015;BME280;61787;42.022;23.078;2023-03-14T00:01:59;97038.94;;;3.46;72.36
20015;BME280;61787;42.022;23.078;2023-03-14T00:03:01;97032.31;;;3.49;72.36
20015;BME280;61787;42.022;23.078;2023-03-14T00:04:04;97040.63;;;3.61;71.76
20015;BME280;61787;42.022;23.078;2023-03-14T00:05:07;97035.50;;;3.69;71.35
20015;BME280;61787;42.022;23.078;2023-03-14T00:06:10;97040.91;;;3.59;72.13
20015;BME280;61787;42.022;23.078;2023-03-14T00:07:12;97032.78;;;3.51;73.02
20015;BME280;61787;42.022;23.078;2023-03-14T00:08:14;97029.97;;;3.42;72.66
20015;BME280;61787;42.022;23.078;2023-03-14T00:09:16;97036.97;;;3.33;73.65
20015;BME280;61787;42.022;23.078;2023-03-14T00:10:18;97034.63;;;3.26;73.63
20015;BME280;61787;42.022;23.078;2023-03-14T00:11:21;97030.41;;;3.25;74.33
20015;BME280;61787;42.022;23.078;2023-03-14T00:12:22;97033.31;;;3.24;74.29
20015;BME280;61787;42.022;23.078;2023-03-14T00:13:24;97032.53;;;3.23;74.45
20015;BME280;61787;42.022;23.078;2023-03-14T00:14:26;97034.91;;;3.25;75.35
20015;BME280;61787;42.022;23.078;2023-03-14T00:15:27;97029.84;;;3.28;74.67
20015;BME280;61787;42.022;23.078;2023-03-14T00:16:29;97033.22;;;3.34;74.83
20015;BME280;61787;42.022;23.078;2023-03-14T00:17:31;97027.91;;;3.34;75.03
20015;BME280;61787;42.022;23.078;2023-03-14T00:18:32;97023.19;;;3.31;75.93
20015;BME280;61787;42.022;23.078;2023-03-14T00:19:34;97036.28;;;3.46;75.30
20015;BME280;61787;42.022;23.078;2023-03-14T00:20:36;97028.81;;;3.53;75.08
20015;BME280;61787;42.022;23.078;2023-03-14T00:21:37;97028.69;;;3.63;74.44
20015;BME280;61787;42.022;23.078;2023-03-14T00:22:40;97022.69;;;3.76;73.83
20015;BME280;61787;42.022;23.078;2023-03-14T00:23:42;97024.22;;;3.82;74.31
20015;BME280;61787;42.022;23.078;2023-03-14T00:24:44;97025.66;;;3.94;72.71
20015;BME280;61787;42.022;23.078;2023-03-14T00:25:45;97022.59;;;4.05;72.47
20015;BME280;61787;42.022;23.078;2023-03-14T00:26:47;97023.31;;;4.11;72.46
20015;BME280;61787;42.022;23.078;2023-03-14T00:27:50;97021.09;;;4.18;72.17
20015;BME280;61787;42.022;23.078;2023-03-14T00:28:52;97023.69;;;4.23;72.09
20015;BME280;61787;42.022;23.078;2023-03-14T00:29:54;97024.13;;;4.30;71.48
20015;BME280;61787;42.022;23.078;2023-03-14T00:30:56;97020.88;;;4.33;71.00
20015;BME280;61787;42.022;23.078;2023-03-14T00:31:58;97020.81;;;4.38;70.26
20015;BME280;61787;42.022;23.078;2023-03-14T00:32:59;97008.53;;;4.42;71.22
20015;BME280;61787;42.022;23.078;2023-03-14T00:34:01;97008.47;;;4.47;70.35
20015;BME280;61787;42.022;23.078;2023-03-14T00:35:03;97009.47;;;4.51;70.63
20015;BME280;61787;42.022;23.078;2023-03-14T00:36:06;97000.34;;;4.57;69.76
20015;BME280;61787;42.022;23.078;2023-03-14T00:37:10;97004.31;;;4.60;69.63
20015;BME280;61787;42.022;23.078;2023-03-14T00:38:11;96995.75;;;4.63;69.50
20015;BME280;61787;42.022;23.078;2023-03-14T00:39:13;97002.03;;;4.67;69.10
20015;BME280;61787;42.022;23.078;2023-03-14T00:40:15;96999.91;;;4.69;69.67
20015;BME280;61787;42.022;23.078;2023-03-14T00:41:19;97000.09;;;4.72;68.74
20015;BME280;61787;42.022;23.078;2023-03-14T00:42:21;96998.75;;;4.75;68.47
20015;BME280;61787;42.022;23.078;2023-03-14T00:43:23;96989.38;;;4.78;68.95
20015;BME280;61787;42.022;23.078;2023-03-14T00:44:25;96988.84;;;4.81;69.12
20015;BME280;61787;42.022;23.078;2023-03-14T00:45:26;96987.34;;;4.75;68.09
20015;BME280;61787;42.022;23.078;2023-03-14T00:46:28;96986.34;;;4.70;68.87
20015;BME280;61787;42.022;23.078;2023-03-14T00:47:30;96991.66;;;4.70;68.70
20015;BME280;61787;42.022;23.078;2023-03-14T00:48:32;96990.97;;;4.79;67.65
20015;BME280;61787;42.022;23.078;2023-03-14T00:49:34;96990.50;;;4.77;67.78
20015;BME280;61787;42.022;23.078;2023-03-14T00:50:35;96993.72;;;4.73;66.77
20015;BME280;61787;42.022;23.078;2023-03-14T00:51:37;96991.66;;;4.70;66.79
20015;BME280;61787;42.022;23.078;2023-03-14T00:52:38;96990.22;;;4.59;67.04
20015;BME280;61787;42.022;23.078;2023-03-14T00:53:40;96993.91;;;4.45;67.89
20015;BME280;61787;42.022;23.078;2023-03-14T00:54:42;96986.91;;;4.35;68.38
20015;BME280;61787;42.022;23.078;2023-03-14T00:55:44;96980.56;;;4.12;69.01
20015;BME280;61787;42.022;23.078;2023-03-14T00:56:45;96975.69;;;4.01;69.62
20015;BME280;61787;42.022;23.078;2023-03-14T00:57:47;96984.44;;;4.01;69.52
20015;BME280;61787;42.022;23.078;2023-03-14T00:58:48;96970.03;;;3.89;69.24
20015;BME280;61787;42.022;23.078;2023-03-14T00:59:50;96974.47;;;3.74;70.49
20015;BME280;61787;42.022;23.078;2023-03-14T01:00:52;96977.28;;;3.59;71.42
20015;BME280;61787;42.022;23.078;2023-03-14T01:01:53;96979.91;;;3.40;72.69
20015;BME280;61787;42.022;23.078;2023-03-14T01:02:55;96982.38;;;3.32;72.95
20015;BME280;61787;42.022;23.078;2023-03-14T01:03:57;96975.03;;;3.24;72.91
20015;BME280;61787;42.022;23.078;2023-03-14T01:04:58;96976.41;;;3.21;73.32
20015;BME280;61787;42.022;23.078;2023-03-14T01:06:14;96971.00;;;3.08;73.79
20015;BME280;61787;42.022;23.078;2023-03-14T01:07:16;96976.28;;;3.08;74.10
20015;BME280;61787;42.022;23.078;2023-03-14T01:08:17;96980.22;;;3.10;74.45
20015;BME280;61787;42.022;23.078;2023-03-14T01:09:19;96968.28;;;3.13;74.63
20015;BME280;61787;42.022;23.078;2023-03-14T01:10:21;96971.31;;;3.01;75.02
20015;BME280;61787;42.022;23.078;2023-03-14T01:11:25;96975.97;;;2.85;75.92
20015;BME280;61787;42.022;23.078;2023-03-14T01:12:27;96973.63;;;2.79;76.26
20015;BME280;61787;42.022;23.078;2023-03-14T01:13:29;96963.91;;;2.69;76.66
20015;BME280;61787;42.022;23.078;2023-03-14T01:14:30;96967.31;;;2.75;76.58
20015;BME280;61787;42.022;23.078;2023-03-14T01:15:36;96968.00;;;2.85;76.55
20015;BME280;61787;42.022;23.078;2023-03-14T01:16:38;96962.19;;;2.83;76.43
20015;BME280;61787;42.022;23.078;2023-03-14T01:17:40;96973.09;;;2.82;76.51
20015;BME280;61787;42.022;23.078;2023-03-14T01:18:42;96957.19;;;2.82;77.03
20015;BME280;61787;42.022;23.078;2023-03-14T01:19:45;96952.91;;;2.86;76.97
20015;BME280;61787;42.022;23.078;2023-03-14T01:20:46;96959.56;;;2.83;76.96
20015;BME280;61787;42.022;23.078;2023-03-14T01:21:48;96966.00;;;2.72;77.28
20015;BME280;61787;42.022;23.078;2023-03-14T01:22:49;96960.72;;;2.72;77.15
20015;BME280;61787;42.022;23.078;2023-03-14T01:23:53;96965.41;;;2.80;77.06
20015;BME280;61787;42.022;23.078;2023-03-14T01:24:54;96964.84;;;2.83;76.93
20015;BME280;61787;42.022;23.078;2023-03-14T01:25:56;96963.50;;;2.86;77.06
20015;BME280;61787;42.022;23.078;2023-03-14T01:26:58;96963.97;;;2.93;76.75
20015;BME280;61787;42.022;23.078;2023-03-14T01:27:59;96965.78;;;2.97;76.93
20015;BME280;61787;42.022;23.078;2023-03-14T01:29:02;96968.38;;;3.03;76.72
20015;BME280;61787;42.022;23.078;2023-03-14T01:30:05;96963.09;;;3.03;76.70
20015;BME280;61787;42.022;23.078;2023-03-14T01:31:08;96971.53;;;3.05;76.28
20015;BME280;61787;42.022;23.078;2023-03-14T01:32:11;96959.22;;;2.90;76.62
20015;BME280;61787;42.022;23.078;2023-03-14T01:33:12;96956.84;;;2.88;77.26
20015;BME280;61787;42.022;23.078;2023-03-14T01:34:15;96957.97;;;2.82;77.47
20015;BME280;61787;42.022;23.078;2023-03-14T01:35:17;96962.84;;;2.70;77.49
20015;BME280;61787;42.022;23.078;2023-03-14T01:36:19;96962.44;;;2.58;78.72
20015;BME280;61787;42.022;23.078;2023-03-14T01:37:20;96964.56;;;2.56;79.19
20015;BME280;61787;42.022;23.078;2023-03-14T01:38:22;96964.63;;;2.51;79.66
20015;BME280;61787;42.022;23.078;2023-03-14T01:39:24;96966.25;;;2.42;80.21
20015;BME280;61787;42.022;23.078;2023-03-14T01:40:25;96961.31;;;2.35;80.76
20015;BME280;61787;42.022;23.078;2023-03-14T01:41:27;96960.25;;;2.31;80.87
20015;BME280;61787;42.022;23.078;2023-03-14T01:42:29;96953.94;;;2.27;81.62
20015;BME280;61787;42.022;23.078;2023-03-14T01:43:30;96961.63;;;2.24;81.94
20015;BME280;61787;42.022;23.078;2023-03-14T01:44:50;96961.63;;;2.24;82.11
20015;BME280;61787;42.022;23.078;2023-03-14T01:46:59;96956.28;;;2.34;82.53
20015;BME280;61787;42.022;23.078;2023-03-14T01:48:01;96949.34;;;2.38;82.47
20015;BME280;61787;42.022;23.078;2023-03-14T01:49:10;96955.63;;;2.47;82.07
20015;BME280;61787;42.022;23.078;2023-03-14T01:50:14;96943.41;;;2.56;81.38
20015;BME280;61787;42.022;23.078;2023-03-14T01:51:44;96944.97;;;2.57;81.80
20015;BME280;61787;42.022;23.078;2023-03-14T01:52:49;96945.44;;;2.64;81.41
20015;BME280;61787;42.022;23.078;2023-03-14T01:54:02;96942.19;;;2.72;81.27
20015;BME280;61787;42.022;23.078;2023-03-14T01:55:07;96946.84;;;2.85;80.61
20015;BME280;61787;42.022;23.078;2023-03-14T01:56:12;96937.16;;;2.99;79.60
20015;BME280;61787;42.022;23.078;2023-03-14T01:57:28;96941.22;;;3.16;78.95
20015;BME280;61787;42.022;23.078;2023-03-14T01:58:32;96943.75;;;3.26;77.75
20015;BME280;61787;42.022;23.078;2023-03-14T01:59:37;96931.50;;;3.30;77.04
20015;BME280;61787;42.022;23.078;2023-03-14T02:00:39;96937.00;;;3.38;76.05
20015;BME280;61787;42.022;23.078;2023-03-14T02:01:43;96939.28;;;3.45;75.37
20015;BME280;61787;42.022;23.078;2023-03-14T02:02:51;96940.81;;;3.51;75.43
20015;BME280;61787;42.022;23.078;2023-03-14T02:03:54;96934.38;;;3.57;74.90
20015;BME280;61787;42.022;23.078;2023-03-14T02:04:58;96942.25;;;3.62;74.58
20015;BME280;61787;42.022;23.078;2023-03-14T02:06:04;96939.03;;;3.65;74.74
20015;BME280;61787;42.022;23.078;2023-03-14T02:07:23;96943.47;;;3.70;74.77
20015;BME280;61787;42.022;23.078;2023-03-14T02:08:27;96942.66;;;3.74;74.69
20015;BME280;61787;42.022;23.078;2023-03-14T02:09:30;96945.50;;;3.78;74.66
20015;BME280;61787;42.022;23.078;2023-03-14T02:10:35;96944.94;;;3.81;74.56
20015;BME280;61787;42.022;23.078;2023-03-14T02:11:38;96947.03;;;3.84;74.06
20015;BME280;61787;42.022;23.078;2023-03-14T02:12:40;96951.94;;;3.91;73.93
20015;BME280;61787;42.022;23.078;2023-03-14T02:13:42;96942.56;;;3.98;73.06
20015;BME280;61787;42.022;23.078;2023-03-14T02:14:43;96943.56;;;4.02;73.11
20015;BME280;61787;42.022;23.078;2023-03-14T02:15:50;96949.09;;;4.06;71.72
20015;BME280;61787;42.022;23.078;2023-03-14T02:16:52;96950.25;;;4.00;72.20
20015;BME280;61787;42.022;23.078;2023-03-14T02:17:54;96950.03;;;3.96;72.06
20015;BME280;61787;42.022;23.078;2023-03-14T02:18:55;96946.66;;;3.91;70.99
20015;BME280;61787;42.022;23.078;2023-03-14T02:21:34;96945.44;;;3.83;70.58
20015;BME280;61787;42.022;23.078;2023-03-14T02:22:41;96941.56;;;3.75;71.30
20015;BME280;61787;42.022;23.078;2023-03-14T02:23:55;96940.69;;;3.61;71.23
20015;BME280;61787;42.022;23.078;2023-03-14T02:26:22;96941.66;;;3.47;71.69
20015;BME280;61787;42.022;23.078;2023-03-14T02:27:26;96944.09;;;3.43;71.86
20015;BME280;61787;42.022;23.078;2023-03-14T02:28:28;96933.97;;;3.45;71.78
20015;BME280;61787;42.022;23.078;2023-03-14T02:29:31;96941.94;;;3.45;71.11
20015;BME280;61787;42.022;23.078;2023-03-14T02:30:35;96948.88;;;3.41;71.43
20015;BME280;61787;42.022;23.078;2023-03-14T02:31:37;96943.78;;;3.44;71.62
20015;BME280;61787;42.022;23.078;2023-03-14T02:32:41;96941.00;;;3.36;72.79
20015;BME280;61787;42.022;23.078;2023-03-14T02:33:45;96938.19;;;3.27;72.83
20015;BME280;61787;42.022;23.078;2023-03-14T02:34:50;96934.56;;;3.18;73.13
20015;BME280;61787;42.022;23.078;2023-03-14T02:35:56;96937.78;;;3.15;73.20
20015;BME280;61787;42.022;23.078;2023-03-14T02:37:00;96930.63;;;3.16;73.36
20015;BME280;61787;42.022;23.078;2023-03-14T02:39:26;96936.59;;;3.03;73.86
20015;BME280;61787;42.022;23.078;2023-03-14T02:40:29;96931.38;;;2.92;74.54
20015;BME280;61787;42.022;23.078;2023-03-14T02:41:31;96930.16;;;2.85;74.54
20015;BME280;61787;42.022;23.078;2023-03-14T02:42:32;96926.75;;;2.79;74.96
20015;BME280;61787;42.022;23.078;2023-03-14T02:43:34;96927.88;;;2.73;75.14
20015;BME280;61787;42.022;23.078;2023-03-14T02:44:35;96931.59;;;2.72;75.27
20015;BME280;61787;42.022;23.078;2023-03-14T02:45:41;96924.75;;;2.71;75.63
20015;BME280;61787;42.022;23.078;2023-03-14T02:46:43;96926.88;;;2.69;75.97
20015;BME280;61787;42.022;23.078;2023-03-14T02:48:00;96918.41;;;2.67;76.46
20015;BME280;61787;42.022;23.078;2023-03-14T02:49:07;96921.09;;;2.62;76.26
20015;BME280;61787;42.022;23.078;2023-03-14T02:50:12;96916.16;;;2.55;76.57
20015;BME280;61787;42.022;23.078;2023-03-14T02:51:15;96914.78;;;2.58;76.77
20015;BME280;61787;42.022;23.078;2023-03-14T02:52:17;96917.47;;;2.53;77.01
20015;BME280;61787;42.022;23.078;2023-03-14T02:53:22;96923.00;;;2.56;77.25
20015;BME280;61787;42.022;23.078;2023-03-14T02:54:25;96908.69;;;2.57;77.17
20015;BME280;61787;42.022;23.078;2023-03-14T02:55:26;96912.59;;;2.65;77.02
20015;BME280;61787;42.022;23.078;2023-03-14T02:56:28;96913.69;;;2.64;76.86
20015;BME280;61787;42.022;23.078;2023-03-14T02:57:30;96918.44;;;2.62;76.53
20015;BME280;61787;42.022;23.078;2023-03-14T02:58:31;96915.84;;;2.57;76.93
20015;BME280;61787;42.022;23.078;2023-03-14T02:59:33;96908.75;;;2.52;76.53
20015;BME280;61787;42.022;23.078;2023-03-14T03:00:34;96911.78;;;2.41;76.96
20015;BME280;61787;42.022;23.078;2023-03-14T03:01:36;96918.34;;;2.43;77.74
20015;BME280;61787;42.022;23.078;2023-03-14T03:02:38;96916.47;;;2.49;77.44
20015;BME280;61787;42.022;23.078;2023-03-14T03:03:40;96913.25;;;2.52;77.59
20015;BME280;61787;42.022;23.078;2023-03-14T03:04:41;96921.97;;;2.52;77.31
20015;BME280;61787;42.022;23.078;2023-03-14T03:05:43;96923.88;;;2.47;77.55
20015;BME280;61787;42.022;23.078;2023-03-14T03:06:45;96926.03;;;2.45;77.96
20015;BME280;61787;42.022;23.078;2023-03-14T03:07:46;96925.22;;;2.44;78.21
20015;BME280;61787;42.022;23.078;2023-03-14T03:08:48;96927.03;;;2.49;77.82
20015;BME280;61787;42.022;23.078;2023-03-14T03:09:49;96927.63;;;2.46;77.55
20015;BME280;61787;42.022;23.078;2023-03-14T03:10:52;96924.41;;;2.49;77.64
20015;BME280;61787;42.022;23.078;2023-03-14T03:11:53;96924.72;;;2.42;77.48
20015;BME280;61787;42.022;23.078;2023-03-14T03:12:55;96926.34;;;2.38;77.86
20015;BME280;61787;42.022;23.078;2023-03-14T03:13:57;96934.28;;;2.38;77.77
20015;BME280;61787;42.022;23.078;2023-03-14T03:14:58;96927.34;;;2.42;77.34
20015;BME280;61787;42.022;23.078;2023-03-14T03:16:00;96927.91;;;2.39;77.56
20015;BME280;61787;42.022;23.078;2023-03-14T03:17:01;96936.59;;;2.45;77.54
20015;BME280;61787;42.022;23.078;2023-03-14T03:18:03;96925.00;;;2.41;77.61
20015;BME280;61787;42.022;23.078;2023-03-14T03:19:05;96928.31;;;2.23;77.90
20015;BME280;61787;42.022;23.078;2023-03-14T03:20:07;96929.41;;;2.17;78.34
20015;BME280;61787;42.022;23.078;2023-03-14T03:21:10;96928.63;;;2.16;78.01
20015;BME280;61787;42.022;23.078;2023-03-14T03:22:12;96927.81;;;2.15;78.85
20015;BME280;61787;42.022;23.078;2023-03-14T03:23:13;96934.44;;;2.18;78.99
20015;BME280;61787;42.022;23.078;2023-03-14T03:24:15;96931.00;;;2.18;78.98
20015;BME280;61787;42.022;23.078;2023-03-14T03:25:17;96940.47;;;2.24;78.33
20015;BME280;61787;42.022;23.078;2023-03-14T03:26:18;96935.75;;;2.15;79.09
20015;BME280;61787;42.022;23.078;2023-03-14T03:27:20;96944.38;;;1.92;80.09
20015;BME280;61787;42.022;23.078;2023-03-14T03:28:21;96939.44;;;1.81;81.02
20015;BME280;61787;42.022;23.078;2023-03-14T03:29:23;96931.31;;;1.67;81.27
20015;BME280;61787;42.022;23.078;2023-03-14T03:30:25;96932.41;;;1.61;82.52
20015;BME280;61787;42.022;23.078;2023-03-14T03:31:27;96937.63;;;1.71;82.28
20015;BME280;61787;42.022;23.078;2023-03-14T03:32:28;96934.97;;;1.76;81.83
20015;BME280;61787;42.022;23.078;2023-03-14T03:33:30;96940.50;;;1.75;82.27
20015;BME280;61787;42.022;23.078;2023-03-14T03:34:31;96941.31;;;1.75;82.25
20015;BME280;61787;42.022;23.078;2023-03-14T03:35:33;96943.44;;;1.73;82.32
20015;BME280;61787;42.022;23.078;2023-03-14T03:36:35;96940.81;;;1.73;82.40
20015;BME280;61787;42.022;23.078;2023-03-14T03:37:36;96936.56;;;1.77;82.14
20015;BME280;61787;42.022;23.078;2023-03-14T03:38:38;96942.88;;;1.81;81.75
20015;BME280;61787;42.022;23.078;2023-03-14T03:39:40;96936.00;;;1.80;82.18
20015;BME280;61787;42.022;23.078;2023-03-14T03:40:42;96934.16;;;1.76;82.48
20015;BME280;61787;42.022;23.078;2023-03-14T03:41:43;96940.28;;;1.71;82.23
20015;BME280;61787;42.022;23.078;2023-03-14T03:42:45;96939.22;;;1.72;82.45
20015;BME280;61787;42.022;23.078;2023-03-14T03:43:46;96944.47;;;1.77;82.50
20015;BME280;61787;42.022;23.078;2023-03-14T03:44:48;96947.63;;;1.84;82.10
20015;BME280;61787;42.022;23.078;2023-03-14T03:45:51;96949.69;;;1.92;82.29
20015;BME280;61787;42.022;23.078;2023-03-14T03:46:52;96942.75;;;2.01;81.69
20015;BME280;61787;42.022;23.078;2023-03-14T03:47:54;96945.31;;;2.11;81.79
20015;BME280;61787;42.022;23.078;2023-03-14T03:48:57;96952.38;;;2.21;81.35
20015;BME280;61787;42.022;23.078;2023-03-14T03:49:58;96945.69;;;2.34;81.42
20015;BME280;61787;42.022;23.078;2023-03-14T03:51:00;96950.91;;;2.44;80.93
20015;BME280;61787;42.022;23.078;2023-03-14T03:52:02;96949.75;;;2.55;80.17
20015;BME280;61787;42.022;23.078;2023-03-14T03:53:03;96945.44;;;2.64;79.32
20015;BME280;61787;42.022;23.078;2023-03-14T03:54:05;96945.34;;;2.74;79.02
20015;BME280;61787;42.022;23.078;2023-03-14T03:55:07;96952.66;;;2.82;78.51
20015;BME280;61787;42.022;23.078;2023-03-14T03:56:09;96950.50;;;2.89;78.41
20015;BME280;61787;42.022;23.078;2023-03-14T03:57:10;96947.75;;;2.99;77.51
20015;BME280;61787;42.022;23.078;2023-03-14T03:58:12;96948.22;;;3.07;77.08
20015;BME280;61787;42.022;23.078;2023-03-14T03:59:14;96946.84;;;3.09;76.61
20015;BME280;61787;42.022;23.078;2023-03-14T04:00:16;96946.00;;;3.14;76.28
20015;BME280;61787;42.022;23.078;2023-03-14T04:01:17;96955.00;;;3.18;76.01
20015;BME280;61787;42.022;23.078;2023-03-14T04:02:19;96957.59;;;3.23;75.81
20015;BME280;61787;42.022;23.078;2023-03-14T04:03:21;96952.78;;;3.25;75.21
20015;BME280;61787;42.022;23.078;2023-03-14T04:04:23;96958.59;;;3.27;75.25
20015;BME280;61787;42.022;23.078;2023-03-14T04:05:25;96957.53;;;3.28;74.73
20015;BME280;61787;42.022;23.078;2023-03-14T04:06:26;96959.59;;;3.31;74.29
20015;BME280;61787;42.022;23.078;2023-03-14T04:07:31;96955.88;;;3.32;74.19
20015;BME280;61787;42.022;23.078;2023-03-14T04:08:33;96961.66;;;3.34;74.02
20015;BME280;61787;42.022;23.078;2023-03-14T04:09:37;96961.06;;;3.42;72.93
20015;BME280;61787;42.022;23.078;2023-03-14T04:10:39;96963.66;;;3.47;71.96
20015;BME280;61787;42.022;23.078;2023-03-14T04:11:40;96966.53;;;3.51;71.91
20015;BME280;61787;42.022;23.078;2023-03-14T04:12:42;96966.25;;;3.52;71.08
20015;BME280;61787;42.022;23.078;2023-03-14T04:13:44;96964.16;;;3.49;71.51
20015;BME280;61787;42.022;23.078;2023-03-14T04:14:46;96967.09;;;3.48;71.58
20015;BME280;61787;42.022;23.078;2023-03-14T04:15:48;96966.84;;;3.44;71.74
20015;BME280;61787;42.022;23.078;2023-03-14T04:16:49;96970.28;;;3.44;71.91
20015;BME280;61787;42.022;23.078;2023-03-14T04:17:51;96963.72;;;3.42;71.51
20015;BME280;61787;42.022;23.078;2023-03-14T04:18:53;96966.38;;;3.42;71.88
20015;BME280;61787;42.022;23.078;2023-03-14T04:19:54;96950.59;;;3.32;71.83
20015;BME280;61787;42.022;23.078;2023-03-14T04:20:57;96951.75;;;3.21;72.24
20015;BME280;61787;42.022;23.078;2023-03-14T04:21:59;96955.75;;;2.94;73.95
20015;BME280;61787;42.022;23.078;2023-03-14T04:23:00;96951.44;;;2.46;75.43
20015;BME280;61787;42.022;23.078;2023-03-14T04:24:02;96955.06;;;2.16;77.25
20015;BME280;61787;42.022;23.078;2023-03-14T04:25:05;96955.47;;;1.99;78.45
20015;BME280;61787;42.022;23.078;2023-03-14T04:26:07;96950.63;;;2.06;78.82
20015;BME280;61787;42.022;23.078;2023-03-14T04:27:08;96954.28;;;2.15;78.64
20015;BME280;61787;42.022;23.078;2023-03-14T04:28:10;96952.16;;;2.18;78.56
20015;BME280;61787;42.022;23.078;2023-03-14T04:29:12;96953.44;;;2.25;78.12
20015;BME280;61787;42.022;23.078;2023-03-14T04:30:13;96957.63;;;2.26;77.68
20015;BME280;61787;42.022;23.078;2023-03-14T04:31:18;96957.63;;;2.26;78.17
20015;BME280;61787;42.022;23.078;2023-03-14T04:32:20;96957.88;;;2.35;77.54
20015;BME280;61787;42.022;23.078;2023-03-14T04:33:22;96960.44;;;2.45;77.25
20015;BME280;61787;42.022;23.078;2023-03-14T04:34:24;96956.13;;;2.54;76.85
20015;BME280;61787;42.022;23.078;2023-03-14T04:35:26;96954.44;;;2.63;76.51
20015;BME280;61787;42.022;23.078;2023-03-14T04:36:27;96953.84;;;2.71;76.39
20015;BME280;61787;42.022;23.078;2023-03-14T04:37:29;96951.13;;;2.81;75.95
20015;BME280;61787;42.022;23.078;2023-03-14T04:38:31;96951.56;;;2.88;75.30
20015;BME280;61787;42.022;23.078;2023-03-14T04:39:33;96951.50;;;2.93;74.77
20015;BME280;61787;42.022;23.078;2023-03-14T04:40:37;96946.72;;;2.95;74.87
20015;BME280;61787;42.022;23.078;2023-03-14T04:41:39;96943.03;;;2.96;74.48
20015;BME280;61787;42.022;23.078;2023-03-14T04:42:41;96936.09;;;3.00;74.76
20015;BME280;61787;42.022;23.078;2023-03-14T04:43:42;96937.94;;;3.00;74.27
20015;BME280;61787;42.022;23.078;2023-03-14T04:44:44;96935.81;;;3.02;74.50
20015;BME280;61787;42.022;23.078;2023-03-14T04:45:48;96937.09;;;3.05;74.27
20015;BME280;61787;42.022;23.078;2023-03-14T04:46:49;96942.91;;;3.07;73.72
20015;BME280;61787;42.022;23.078;2023-03-14T04:47:51;96941.44;;;2.95;73.58
20015;BME280;61787;42.022;23.078;2023-03-14T04:48:53;96940.47;;;2.86;74.55
20015;BME280;61787;42.022;23.078;2023-03-14T04:49:54;96942.06;;;2.82;74.16
20015;BME280;61787;42.022;23.078;2023-03-14T04:50:56;96946.25;;;2.88;74.33
20015;BME280;61787;42.022;23.078;2023-03-14T04:51:57;96945.16;;;2.94;74.42
20015;BME280;61787;42.022;23.078;2023-03-14T04:52:59;96938.22;;;2.98;73.93
20015;BME280;61787;42.022;23.078;2023-03-14T04:54:00;96937.38;;;3.03;73.64
20015;BME280;61787;42.022;23.078;2023-03-14T04:55:02;96937.31;;;3.08;73.47
20015;BME280;61787;42.022;23.078;2023-03-14T04:56:05;96938.06;;;3.14;73.35
20015;BME280;61787;42.022;23.078;2023-03-14T04:57:07;96936.50;;;3.13;73.27
20015;BME280;61787;42.022;23.078;2023-03-14T04:58:10;96937.63;;;3.07;73.44
20015;BME280;61787;42.022;23.078;2023-03-14T04:59:13;96936.69;;;2.92;74.30
20015;BME280;61787;42.022;23.078;2023-03-14T05:00:16;96936.25;;;2.85;74.66
20015;BME280;61787;42.022;23.078;2023-03-14T05:01:21;96939.38;;;2.87;74.56
20015;BME280;61787;42.022;23.078;2023-03-14T05:02:24;96939.38;;;2.87;74.69
20015;BME280;61787;42.022;23.078;2023-03-14T05:03:26;96937.81;;;2.86;75.34
20015;BME280;61787;42.022;23.078;2023-03-14T05:04:27;96933.03;;;2.88;75.23
20015;BME280;61787;42.022;23.078;2023-03-14T05:05:29;96934.13;;;2.82;74.84
20015;BME280;61787;42.022;23.078;2023-03-14T05:06:30;96936.47;;;2.60;76.09
20015;BME280;61787;42.022;23.078;2023-03-14T05:07:32;96936.59;;;2.45;76.86
20015;BME280;61787;42.022;23.078;2023-03-14T05:08:33;96935.03;;;2.44;77.08
20015;BME280;61787;42.022;23.078;2023-03-14T05:09:35;96936.59;;;2.45;77.55
20015;BME280;61787;42.022;23.078;2023-03-14T05:10:37;96937.84;;;2.52;77.32
20015;BME280;61787;42.022;23.078;2023-03-14T05:11:38;96934.47;;;2.47;77.59
20015;BME280;61787;42.022;23.078;2023-03-14T05:12:40;96942.28;;;2.28;78.56
20015;BME280;61787;42.022;23.078;2023-03-14T05:13:42;96943.94;;;2.19;78.73
20015;BME280;61787;42.022;23.078;2023-03-14T05:14:43;96946.88;;;2.18;79.39
20015;BME280;61787;42.022;23.078;2023-03-14T05:15:45;96944.47;;;2.16;79.38
20015;BME280;61787;42.022;23.078;2023-03-14T05:16:46;96940.09;;;2.01;79.97
20015;BME280;61787;42.022;23.078;2023-03-14T05:17:48;96939.66;;;1.89;80.58
20015;BME280;61787;42.022;23.078;2023-03-14T05:18:50;96940.81;;;1.73;81.30
20015;BME280;61787;42.022;23.078;2023-03-14T05:19:52;96933.47;;;1.55;83.08
20015;BME280;61787;42.022;23.078;2023-03-14T05:20:53;96932.91;;;1.68;87.75
20015;BME280;61787;42.022;23.078;2023-03-14T05:21:55;96935.03;;;1.66;86.04
20015;BME280;61787;42.022;23.078;2023-03-14T05:22:57;96931.91;;;1.59;84.64
20015;BME280;61787;42.022;23.078;2023-03-14T05:23:58;96930.88;;;1.50;84.70
20015;BME280;61787;42.022;23.078;2023-03-14T05:25:00;96927.72;;;1.48;84.60
20015;BME280;61787;42.022;23.078;2023-03-14T05:26:01;96932.97;;;1.53;84.76
20015;BME280;61787;42.022;23.078;2023-03-14T05:27:03;96922.19;;;1.39;84.92
20015;BME280;61787;42.022;23.078;2023-03-14T05:28:05;96917.50;;;1.26;85.74
20015;BME280;61787;42.022;23.078;2023-03-14T05:29:07;96917.25;;;1.27;86.33
20015;BME280;61787;42.022;23.078;2023-03-14T05:30:09;96913.03;;;1.21;86.86
20015;BME280;61787;42.022;23.078;2023-03-14T05:31:11;96917.56;;;1.11;86.90
20015;BME280;61787;42.022;23.078;2023-03-14T05:32:13;96916.19;;;1.18;86.59
20015;BME280;61787;42.022;23.078;2023-03-14T05:33:15;96915.69;;;1.21;87.14
20015;BME280;61787;42.022;23.078;2023-03-14T05:34:16;96911.72;;;1.19;86.01
20015;BME280;61787;42.022;23.078;2023-03-14T05:35:18;96914.91;;;1.16;86.43
20015;BME280;61787;42.022;23.078;2023-03-14T05:36:20;96914.66;;;1.12;86.48
20015;BME280;61787;42.022;23.078;2023-03-14T05:37:21;96914.66;;;1.12;86.44